M I D A S
Marine Information and Data Acquisition System
Tripno 475 of the Zeeleeuw from 2003-01-17 07:44:18 to 2003-01-17 12:53:44
Back to CruiseResearch ActivitiesStationsMapUnderway DataData graphs

EquipmentUnitsComment
TimeDGPSUTC
LatitudeDGPSDM.mWGS84
LongitudeDGPSDM.mWGS84
HeadingGyrodeg 
SOGDGPSknotsSpeed over ground
COGDGPSdegCourse over ground
DepthEcho soundermeters200 kHz
Missing or incorrect values are displayed as -999
Navigation data collected by the RV Zeeleeuw from 2003-01-17 07:44:18 to 2003-01-17 12:53:44
                                                                                    Next 1000 lines
Time Latitude Longitude Heading SOG COG Depth
2003-01-17 07:44:28 51°13.633 2°55.932 115.7 5.1 291.3 -999
2003-01-17 07:44:34 51°13.636 2°55.92 116 5.1 292 -999
2003-01-17 07:44:38 51°13.638 2°55.911 116.3 5.1 292.3 -999
2003-01-17 07:44:44 51°13.642 2°55.899 116.8 5.1 292.5 -999
2003-01-17 07:44:49 51°13.644 2°55.889 117.3 5.1 293 -999
2003-01-17 07:44:54 51°13.647 2°55.878 117.8 5.1 293.3 -999
2003-01-17 07:44:59 51°13.65 2°55.868 117.7 5.2 293.3 -999
2003-01-17 07:45:04 51°13.653 2°55.857 117.3 5.2 293.5 -999
2003-01-17 07:45:09 51°13.656 2°55.847 116.8 5.2 293.4 -999
2003-01-17 07:45:14 51°13.659 2°55.836 116.2 5.2 293.6 -999
2003-01-17 07:45:18 51°13.661 2°55.828 115.7 5.1 293.5 -999
2003-01-17 07:45:24 51°13.665 2°55.816 114.7 5 293.3 -999
2003-01-17 07:45:28 51°13.667 2°55.808 113.3 4.6 292.8 -999
2003-01-17 07:45:34 51°13.669 2°55.797 112 4.4 291.9 -999
2003-01-17 07:45:38 51°13.671 2°55.791 110.5 4.2 291.4 -999
2003-01-17 07:45:42 51°13.672 2°55.785 108.5 3.7 291 8.9
2003-01-17 07:45:48 51°13.673 2°55.78 105.2 3 290.2 9.3
2003-01-17 07:45:53 51°13.674 2°55.776 100.2 1.9 292.5 9.4
2003-01-17 07:45:58 51°13.675 2°55.774 95.2 1.3 296.4 9.5
2003-01-17 07:46:02 51°13.676 2°55.774 90.2 0.7 316 9.7
2003-01-17 07:46:08 51°13.677 2°55.773 84.7 0.6 341.5 9.9
2003-01-17 07:46:13 51°13.678 2°55.774 78.8 0.7 12 10.2
2003-01-17 07:46:18 51°13.679 2°55.775 72.8 1 29 10.8
2003-01-17 07:46:22 51°13.681 2°55.777 65.8 1.3 34.2 10.8
2003-01-17 07:46:28 51°13.683 2°55.779 58.5 1.6 35.7 11.4
2003-01-17 07:46:32 51°13.686 2°55.781 49.8 2.1 32.5 11.6
2003-01-17 07:46:38 51°13.689 2°55.784 40.8 2.5 25.9 11.3
2003-01-17 07:46:43 51°13.693 2°55.786 32.3 2.8 20.8 11.1
2003-01-17 07:46:48 51°13.698 2°55.787 23.3 3.1 12.7 11
2003-01-17 07:46:53 51°13.703 2°55.787 15 3.4 5.2 10.7
2003-01-17 07:46:58 51°13.708 2°55.787 5.8 3.7 359.7 10.7
2003-01-17 07:47:03 51°13.713 2°55.785 357.3 3.9 352.1 10.6
2003-01-17 07:47:08 51°13.719 2°55.782 349 4.2 342.9 9.4
2003-01-17 07:47:13 51°13.724 2°55.777 340.2 4.4 335.2 9.2
2003-01-17 07:47:18 51°13.729 2°55.772 332 4.4 329.9 9.1
2003-01-17 07:47:23 51°13.734 2°55.766 327.2 4.4 324.3 8.9
2003-01-17 07:47:28 51°13.739 2°55.759 324.5 4.4 320.1 8.4
2003-01-17 07:47:34 51°13.744 2°55.752 323 4.4 318.4 8.3
2003-01-17 07:47:38 51°13.748 2°55.746 321 4.4 316.8 8
2003-01-17 07:47:42 51°13.751 2°55.74 319.3 4.4 315.1 7.9
2003-01-17 07:47:48 51°13.756 2°55.731 318.2 4.6 313.4 7.6
2003-01-17 07:47:53 51°13.761 2°55.723 317.7 4.7 312.4 7.8
2003-01-17 07:47:58 51°13.765 2°55.715 317.3 4.8 312.1 7.7
2003-01-17 07:48:02 51°13.769 2°55.709 316.2 4.9 311.7 8.1
2003-01-17 07:48:08 51°13.774 2°55.699 315.2 5 310.7 9.5
2003-01-17 07:48:13 51°13.779 2°55.69 314.8 5.1 309.9 -999
2003-01-17 07:48:18 51°13.784 2°55.681 314.3 5.3 310.2 9.7
2003-01-17 07:48:22 51°13.787 2°55.674 314.5 5.4 309.7 9.2
2003-01-17 07:48:28 51°13.793 2°55.662 315.7 5.4 310.6 9.4
2003-01-17 07:48:33 51°13.799 2°55.653 317.2 5.5 311.4 9
2003-01-17 07:48:38 51°13.804 2°55.644 319.2 5.6 313.6 9.1
2003-01-17 07:48:42 51°13.808 2°55.637 321 5.7 315.1 8
2003-01-17 07:48:48 51°13.815 2°55.627 323.2 5.7 316.8 9.2
2003-01-17 07:48:52 51°13.82 2°55.62 325.2 5.8 318.8 8.4
2003-01-17 07:48:58 51°13.828 2°55.611 327.5 5.8 320.9 8.6
2003-01-17 07:49:02 51°13.833 2°55.605 330.7 5.9 323.8 8.6
2003-01-17 07:49:08 51°13.842 2°55.597 334 5.9 327.1 8.5
2003-01-17 07:49:12 51°13.848 2°55.592 337.5 5.9 330.8 8.9
2003-01-17 07:49:18 51°13.857 2°55.585 341.2 5.9 334 8.6
2003-01-17 07:49:23 51°13.864 2°55.58 343.8 6 337.2 8.9
2003-01-17 07:49:28 51°13.872 2°55.575 346 6 339.1 -999
2003-01-17 07:49:32 51°13.878 2°55.572 346.7 6 340.4 9.1
2003-01-17 07:49:38 51°13.888 2°55.567 346.7 6.1 340.7 9
2003-01-17 07:49:42 51°13.894 2°55.563 346.3 6.1 340.7 8.7
2003-01-17 07:49:48 51°13.904 2°55.558 346.2 6.1 340.5 9.1
2003-01-17 07:49:53 51°13.912 2°55.554 345.8 6.1 340.5 9.1
2003-01-17 07:49:58 51°13.92 2°55.549 346.2 6.1 340.3 9
2003-01-17 07:50:03 51°13.928 2°55.544 347 6.2 340.9 9.1
2003-01-17 07:50:08 51°13.936 2°55.54 348 6.2 341.4 9.1
2003-01-17 07:50:14 51°13.946 2°55.535 348.5 6.2 341.8 9.1
2003-01-17 07:50:18 51°13.952 2°55.531 347.8 6.2 341.5 8.9
2003-01-17 07:50:22 51°13.959 2°55.527 347.2 6.2 341.1 8.7
2003-01-17 07:50:28 51°13.968 2°55.521 346.7 6.2 340.7 9.1
2003-01-17 07:50:33 51°13.977 2°55.517 346.5 6.2 341 9
2003-01-17 07:50:38 51°13.985 2°55.512 346.2 6.2 341 -999
2003-01-17 07:50:42 51°13.991 2°55.509 346 6.2 341.1 8.9
2003-01-17 07:50:48 51°14.001 2°55.504 345.5 6.3 340.7 8.9
2003-01-17 07:50:53 51°14.01 2°55.499 345.3 6.4 340.2 8.9
2003-01-17 07:50:58 51°14.019 2°55.494 345 6.5 339.8 8.6
2003-01-17 07:51:02 51°14.025 2°55.489 343.7 6.6 338.9 8.9
2003-01-17 07:51:08 51°14.036 2°55.483 342.5 6.6 337.8 8.7
2003-01-17 07:51:13 51°14.044 2°55.477 342.2 6.7 337.1 8.8
2003-01-17 07:51:18 51°14.053 2°55.471 342.3 6.8 336.9 8.8
2003-01-17 07:51:22 51°14.06 2°55.466 341.5 6.8 336.4 8.7
2003-01-17 07:51:28 51°14.07 2°55.458 340.2 6.9 335.1 8.5
2003-01-17 07:51:33 51°14.079 2°55.452 339.7 6.9 334 8.8
2003-01-17 07:51:38 51°14.088 2°55.445 339.5 7 333.5 -999
2003-01-17 07:51:43 51°14.096 2°55.437 339.2 7 333.2 8.9
2003-01-17 07:51:48 51°14.105 2°55.43 338.5 7.1 332.8 8.4
2003-01-17 07:51:53 51°14.114 2°55.423 338.3 7.1 332.4 7.8
2003-01-17 07:51:58 51°14.122 2°55.415 338.2 7.1 332.1 -999
2003-01-17 07:52:04 51°14.133 2°55.406 337.7 7.1 331.8 7.4
2003-01-17 07:52:08 51°14.14 2°55.4 337.2 7.1 331.1 7.6
2003-01-17 07:52:12 51°14.147 2°55.394 336.2 7.1 330.6 7.8
2003-01-17 07:52:18 51°14.157 2°55.384 335 7.1 329.6 7.7
2003-01-17 07:52:22 51°14.164 2°55.378 334.5 7.1 328.9 7.8
2003-01-17 07:52:28 51°14.174 2°55.368 333.7 7.1 328.1 7.4
2003-01-17 07:52:33 51°14.182 2°55.359 332.8 7.1 327.2 7.4
2003-01-17 07:52:38 51°14.19 2°55.35 331.7 7.2 326.2 7.4
2003-01-17 07:52:43 51°14.199 2°55.341 330.5 7.2 325 7.2
2003-01-17 07:52:48 51°14.207 2°55.331 329.3 7.2 323.7 7.1
2003-01-17 07:52:53 51°14.214 2°55.321 328 7.2 322.4 6.7
2003-01-17 07:52:58 51°14.222 2°55.311 326.5 7.1 321 -999
2003-01-17 07:53:02 51°14.228 2°55.303 325.2 7.1 319.7 7.6
2003-01-17 07:53:08 51°14.237 2°55.29 323.3 7.1 318.3 7.8
2003-01-17 07:53:13 51°14.244 2°55.28 322 7.2 316.8 7.4
2003-01-17 07:53:18 51°14.251 2°55.268 320.8 7.2 315.6 8
2003-01-17 07:53:22 51°14.257 2°55.259 320 7.2 314.4 7.8
2003-01-17 07:53:28 51°14.265 2°55.246 319 7.2 313.4 7.9
2003-01-17 07:53:33 51°14.272 2°55.234 318.3 7.2 312.8 8.7
2003-01-17 07:53:38 51°14.278 2°55.222 317.8 7.2 312.3 8.3
2003-01-17 07:53:42 51°14.284 2°55.212 317.7 7.3 311.8 8.8
2003-01-17 07:53:48 51°14.292 2°55.197 317.8 7.5 311.4 -999
2003-01-17 07:53:52 51°14.298 2°55.186 317.5 7.8 311.2 8.7
2003-01-17 07:53:58 51°14.306 2°55.17 317 8 310.7 8.7
2003-01-17 07:54:03 51°14.314 2°55.156 316.7 8.2 310.3 8.9
2003-01-17 07:54:08 51°14.321 2°55.142 316.2 8.4 309.7 8.5
2003-01-17 07:54:13 51°14.329 2°55.127 315.7 8.6 309.5 8.4
2003-01-17 07:54:18 51°14.337 2°55.112 315 8.7 309.1 8.1
2003-01-17 07:54:22 51°14.343 2°55.1 314.5 8.8 308.5 8.2
2003-01-17 07:54:28 51°14.352 2°55.082 313.7 8.9 308 8.7
2003-01-17 07:54:33 51°14.359 2°55.065 313.7 9.1 307.7 8.5
2003-01-17 07:54:38 51°14.367 2°55.049 314.7 9.3 308.1 8.4
2003-01-17 07:54:43 51°14.375 2°55.032 314 9.5 307.9 7.8
2003-01-17 07:54:48 51°14.384 2°55.015 313.2 9.6 307.1 9.3
2003-01-17 07:54:54 51°14.393 2°54.994 312.7 9.8 306.1 8.9
2003-01-17 07:54:58 51°14.4 2°54.98 314 9.9 306.2 9.2
2003-01-17 07:55:03 51°14.408 2°54.962 315.8 10 307.3 8.2
2003-01-17 07:55:08 51°14.417 2°54.945 316.3 10.1 307.9 9.3
2003-01-17 07:55:12 51°14.424 2°54.93 315.7 10.2 307.5 9
2003-01-17 07:55:18 51°14.434 2°54.908 314.3 10.3 306.2 9.3
2003-01-17 07:55:22 51°14.441 2°54.893 312 10.4 304.4 9.2
2003-01-17 07:55:28 51°14.45 2°54.869 310.2 10.5 302.8 9
2003-01-17 07:55:34 51°14.459 2°54.846 310 10.6 302.1 9.1
2003-01-17 07:55:38 51°14.466 2°54.83 311.3 10.6 303 9.2
2003-01-17 07:55:42 51°14.473 2°54.815 313.3 10.6 304.5 9.2
2003-01-17 07:55:48 51°14.484 2°54.792 316.5 10.6 307.3 -999
2003-01-17 07:55:53 51°14.493 2°54.774 317.8 10.6 309.7 9.3
2003-01-17 07:55:58 51°14.503 2°54.756 318.5 10.7 310.4 9
2003-01-17 07:56:03 51°14.512 2°54.738 318 10.7 310.2 9.1
2003-01-17 07:56:08 51°14.521 2°54.719 316 10.7 308.7 8.9
2003-01-17 07:56:13 51°14.53 2°54.7 314.5 10.7 307.1 9.1
2003-01-17 07:56:18 51°14.539 2°54.681 313.2 10.7 306 9.2
2003-01-17 07:56:22 51°14.546 2°54.665 312.8 10.8 305.2 9.1
2003-01-17 07:56:28 51°14.556 2°54.642 313.2 10.8 305.6 9.2
2003-01-17 07:56:33 51°14.566 2°54.623 314.5 10.8 306.8 8.9
2003-01-17 07:56:38 51°14.575 2°54.605 317 10.8 308.5 9.1
2003-01-17 07:56:42 51°14.583 2°54.59 318.5 10.8 310.6 9
2003-01-17 07:56:48 51°14.595 2°54.569 318.5 10.8 311.2 8.8
2003-01-17 07:56:52 51°14.603 2°54.554 318 10.9 311.2 9.2
2003-01-17 07:56:58 51°14.615 2°54.532 316.8 11 310.4 -999
2003-01-17 07:57:03 51°14.624 2°54.513 316.3 11.1 309.3 9.1
2003-01-17 07:57:08 51°14.634 2°54.493 316 11.2 309.1 9.1
2003-01-17 07:57:13 51°14.644 2°54.473 316.2 11.3 309.1 8.9
2003-01-17 07:57:18 51°14.654 2°54.454 316.3 11.4 309.2 8.8
2003-01-17 07:57:23 51°14.664 2°54.434 316 11.5 309.1 8.9
2003-01-17 07:57:28 51°14.674 2°54.414 315.7 11.6 308.9 8.6
2003-01-17 07:57:33 51°14.685 2°54.393 315.2 11.6 308.4 9
2003-01-17 07:57:38 51°14.694 2°54.373 314 11.7 307.7 8.9
2003-01-17 07:57:42 51°14.702 2°54.357 313.3 11.7 306.9 9
2003-01-17 07:57:48 51°14.714 2°54.332 314 11.7 306.7 8.8
2003-01-17 07:57:52 51°14.722 2°54.315 314.3 11.7 307.1 8.9
2003-01-17 07:57:58 51°14.734 2°54.291 315.2 11.7 307.3 9.2
2003-01-17 07:58:02 51°14.742 2°54.274 315.5 11.7 307.3 9.1
2003-01-17 07:58:08 51°14.753 2°54.249 315 11.7 307.1 9
2003-01-17 07:58:13 51°14.762 2°54.228 311.8 11.6 304.3 8.7
2003-01-17 07:58:18 51°14.769 2°54.205 305.8 11.5 299.5 8.9
2003-01-17 07:58:23 51°14.775 2°54.181 300.2 11.5 295.4 9
2003-01-17 07:58:28 51°14.781 2°54.157 297.5 11.6 290.7 9
2003-01-17 07:58:33 51°14.787 2°54.133 299.2 11.6 290.9 9
2003-01-17 07:58:38 51°14.793 2°54.11 302.2 11.6 293 9.2
2003-01-17 07:58:42 51°14.799 2°54.092 305.7 11.6 295.2 8.9
2003-01-17 07:58:48 51°14.808 2°54.064 306.7 11.6 297.5 9.1
2003-01-17 07:58:53 51°14.815 2°54.041 305.7 11.6 297.4 9.1
2003-01-17 07:58:58 51°14.822 2°54.018 304.5 11.7 295.8 9
2003-01-17 07:59:02 51°14.828 2°53.999 304.5 11.8 295.5 9
2003-01-17 07:59:08 51°14.836 2°53.971 304.2 11.8 295.3 9.1
2003-01-17 07:59:13 51°14.843 2°53.947 304.3 11.8 295.5 8.7
2003-01-17 07:59:18 51°14.85 2°53.924 304.7 11.8 295.5 8.9
2003-01-17 07:59:22 51°14.856 2°53.905 304.7 11.8 295.8 9.1
2003-01-17 07:59:28 51°14.864 2°53.877 305.3 11.8 296.2 9
2003-01-17 07:59:33 51°14.871 2°53.853 305 11.8 295.9 9
2003-01-17 07:59:38 51°14.878 2°53.829 303.3 11.8 295.2 8.9
2003-01-17 07:59:43 51°14.884 2°53.805 301.3 11.8 293.1 9.1
2003-01-17 07:59:48 51°14.89 2°53.78 299.5 11.8 291.2 9.1
2003-01-17 07:59:53 51°14.896 2°53.756 299.5 11.9 291.1 9.1
2003-01-17 07:59:58 51°14.902 2°53.732 300.3 11.9 291.8 9.2
2003-01-17 08:00:02 51°14.908 2°53.712 301.8 11.9 292.9 8.9
2003-01-17 08:00:08 51°14.916 2°53.684 303.7 11.8 294.4 9.3
2003-01-17 08:00:13 51°14.924 2°53.66 305.8 11.8 296.2 9.1
2003-01-17 08:00:18 51°14.931 2°53.637 307 11.8 297.9 9
2003-01-17 08:00:22 51°14.937 2°53.619 306.5 11.8 297.6 9.2
2003-01-17 08:00:28 51°14.946 2°53.59 303.8 11.8 296.1 9.3
2003-01-17 08:00:33 51°14.952 2°53.566 301.2 11.8 293.7 8.9
2003-01-17 08:00:38 51°14.958 2°53.542 299.8 11.8 291.7 9.2
2003-01-17 08:00:42 51°14.963 2°53.522 298.8 11.8 290.8 9.5
2003-01-17 08:00:48 51°14.97 2°53.493 299 11.8 291 9.4
2003-01-17 08:00:54 51°14.977 2°53.464 300.2 11.8 292 9.3
2003-01-17 08:00:58 51°14.983 2°53.445 302.3 11.8 294 9.3
2003-01-17 08:01:02 51°14.988 2°53.427 304.7 11.8 295.7 9.4
2003-01-17 08:01:08 51°14.998 2°53.399 307.3 11.8 298.4 9
2003-01-17 08:01:13 51°15.006 2°53.377 308.8 11.7 300.5 9.2
2003-01-17 08:01:18 51°15.015 2°53.355 309.3 11.7 300.6 9.3
2003-01-17 08:01:24 51°15.024 2°53.328 307.3 11.7 299.4 9.4
2003-01-17 08:01:28 51°15.029 2°53.309 304.5 11.7 296.4 9.5
2003-01-17 08:01:32 51°15.034 2°53.29 301 11.7 293.4 9.4
2003-01-17 08:01:38 51°15.041 2°53.261 299.2 11.7 291.3 9.3
2003-01-17 08:01:42 51°15.046 2°53.241 298.5 11.7 290.8 9.4
2003-01-17 08:01:48 51°15.053 2°53.213 300.3 11.7 292.1 9.7
2003-01-17 08:01:52 51°15.059 2°53.193 302.2 11.8 293.7 9.6
2003-01-17 08:01:58 51°15.067 2°53.165 303.2 11.7 294.7 9
2003-01-17 08:02:02 51°15.072 2°53.146 303.7 11.8 295.1 9.4
2003-01-17 08:02:08 51°15.08 2°53.118 303.3 11.8 294.9 9.1
2003-01-17 08:02:13 51°15.087 2°53.094 303.2 11.8 294.5 9.4
2003-01-17 08:02:18 51°15.094 2°53.07 302.5 11.8 294.1 9.6
2003-01-17 08:02:22 51°15.099 2°53.051 302.2 11.8 294 9.7
2003-01-17 08:02:28 51°15.107 2°53.022 302.2 11.8 293.9 9.7
2003-01-17 08:02:33 51°15.114 2°52.998 301.7 11.8 293.6 9.8
2003-01-17 08:02:38 51°15.12 2°52.974 301.7 11.9 293.3 9.8
2003-01-17 08:02:42 51°15.125 2°52.955 301.5 11.9 293.4 9.9
2003-01-17 08:02:48 51°15.134 2°52.926 302.5 11.9 294.2 9.8
2003-01-17 08:02:53 51°15.141 2°52.902 304.2 11.9 295.5 9.8
2003-01-17 08:02:58 51°15.148 2°52.878 306 11.9 296.7 10.1
2003-01-17 08:03:02 51°15.154 2°52.86 305.7 11.9 296.6 9.9
2003-01-17 08:03:08 51°15.163 2°52.831 303.5 11.9 295.3 10.2
2003-01-17 08:03:13 51°15.169 2°52.807 300.3 11.9 292.4 10.2
2003-01-17 08:03:18 51°15.174 2°52.782 298 11.9 290 10.2
2003-01-17 08:03:22 51°15.179 2°52.762 297.2 11.9 288.9 10.3
2003-01-17 08:03:28 51°15.185 2°52.732 297.2 12 288.8 10.3
2003-01-17 08:03:32 51°15.19 2°52.712 298 11.9 289.7 10.4
2003-01-17 08:03:38 51°15.197 2°52.682 299.3 11.9 290.7 10.5
2003-01-17 08:03:42 51°15.202 2°52.663 300.3 11.9 291.7 10.5
2003-01-17 08:03:48 51°15.209 2°52.634 301.3 11.9 292.2 10.4
2003-01-17 08:03:54 51°15.218 2°52.605 302.7 11.9 293.8 10.6
2003-01-17 08:03:58 51°15.223 2°52.586 304.3 11.9 295.2 10.4
2003-01-17 08:04:02 51°15.229 2°52.567 305.8 11.9 296.3 10.6
2003-01-17 08:04:08 51°15.238 2°52.539 305.3 11.9 296.7 10.7
2003-01-17 08:04:13 51°15.245 2°52.515 303.3 11.9 295.4 10.8
2003-01-17 08:04:18 51°15.251 2°52.491 300.7 11.9 293.4 10.9
2003-01-17 08:04:22 51°15.256 2°52.471 298.3 11.9 290.7 10.8
2003-01-17 08:04:28 51°15.262 2°52.441 297.5 11.9 289.5 10.8
2003-01-17 08:04:33 51°15.268 2°52.416 298.5 11.9 289.7 11
2003-01-17 08:04:38 51°15.274 2°52.391 300 11.9 291.2 11.1
2003-01-17 08:04:42 51°15.279 2°52.372 302.3 11.9 293.1 10.9
2003-01-17 08:04:48 51°15.288 2°52.344 303.5 11.9 294.6 11.2
2003-01-17 08:04:53 51°15.294 2°52.32 303.2 11.9 294.6 11.2
2003-01-17 08:04:58 51°15.301 2°52.295 301.8 11.9 293.4 11.1
2003-01-17 08:05:03 51°15.307 2°52.271 300.8 11.9 292.5 11
2003-01-17 08:05:08 51°15.313 2°52.247 301.5 11.9 292.5 11.3
2003-01-17 08:05:12 51°15.319 2°52.227 302.8 12 293.6 11.3
2003-01-17 08:05:18 51°15.327 2°52.199 303.8 12 294.3 11.3
2003-01-17 08:05:23 51°15.334 2°52.175 303.8 12 294.6 11.1
2003-01-17 08:05:28 51°15.341 2°52.151 303.3 12 294.6 11.3
2003-01-17 08:05:32 51°15.346 2°52.131 303.2 12 294.2 11.4
2003-01-17 08:05:38 51°15.354 2°52.102 302.2 12 293.7 11.5
2003-01-17 08:05:43 51°15.36 2°52.078 302 12 293.3 11.5
2003-01-17 08:05:48 51°15.367 2°52.053 301.8 12 292.9 11.7
2003-01-17 08:05:53 51°15.374 2°52.029 303 12 293.4 11.6
2003-01-17 08:05:58 51°15.381 2°52.006 304.7 12 295.1 11.5
2003-01-17 08:06:02 51°15.388 2°51.987 306.7 12 297 11.7
2003-01-17 08:06:08 51°15.398 2°51.96 308.8 12 298.8 11.8
2003-01-17 08:06:12 51°15.404 2°51.942 310.2 11.9 299.4 11.7
2003-01-17 08:06:18 51°15.413 2°51.914 306.7 11.8 297.6 11.7
2003-01-17 08:06:22 51°15.417 2°51.894 298.8 11.6 291.4 11.7
2003-01-17 08:06:28 51°15.421 2°51.864 291.7 11.6 284.2 11.8
2003-01-17 08:06:33 51°15.423 2°51.838 286.8 11.6 280 11.9
2003-01-17 08:06:38 51°15.425 2°51.812 282.5 11.5 275.1 11.7
2003-01-17 08:06:42 51°15.425 2°51.792 278.3 11.5 272.3 11.5
2003-01-17 08:06:48 51°15.423 2°51.761 274 11.5 267.4 11.9
2003-01-17 08:06:53 51°15.421 2°51.736 269.8 11.5 264.2 12
2003-01-17 08:06:58 51°15.417 2°51.711 265.5 11.5 259 11.9
2003-01-17 08:07:02 51°15.414 2°51.691 261.3 11.5 255.1 11.7
2003-01-17 08:07:08 51°15.407 2°51.663 256.8 11.5 251.1 12.1
2003-01-17 08:07:13 51°15.401 2°51.639 252.7 11.5 247.5 11.8
2003-01-17 08:07:18 51°15.393 2°51.616 248.7 11.5 244.2 12.1
2003-01-17 08:07:23 51°15.386 2°51.594 246.2 11.5 241.7 11.9
2003-01-17 08:07:28 51°15.377 2°51.572 245 11.6 240.1 12.1
2003-01-17 08:07:33 51°15.369 2°51.55 245.3 11.7 240 12
2003-01-17 08:07:38 51°15.361 2°51.527 246.3 11.7 240.7 11.9
2003-01-17 08:07:42 51°15.355 2°51.509 248.3 11.7 242.2 12.2
2003-01-17 08:07:48 51°15.347 2°51.481 250.7 11.7 243.9 12
2003-01-17 08:07:52 51°15.342 2°51.462 252.8 11.7 246.7 11.9
2003-01-17 08:07:58 51°15.335 2°51.432 254.5 11.7 248.4 12.1
2003-01-17 08:08:03 51°15.329 2°51.408 255.2 11.8 249 12.2
2003-01-17 08:08:08 51°15.323 2°51.383 254.7 11.8 249.1 12
2003-01-17 08:08:13 51°15.317 2°51.358 254 11.9 248.8 12.1
2003-01-17 08:08:18 51°15.311 2°51.334 253.2 11.9 247.8 12.2
2003-01-17 08:08:22 51°15.306 2°51.315 252.5 11.9 247 11.9
2003-01-17 08:08:28 51°15.297 2°51.286 251.2 11.9 245.9 12
2003-01-17 08:08:33 51°15.29 2°51.262 249.8 11.9 244.8 12.1
2003-01-17 08:08:38 51°15.283 2°51.239 250 11.9 244.6 12
2003-01-17 08:08:42 51°15.278 2°51.219 251.8 11.9 245.8 11.9
2003-01-17 08:08:48 51°15.27 2°51.19 253.7 11.9 247.5 12.2
2003-01-17 08:08:53 51°15.265 2°51.165 255 12 248.9 11.9
2003-01-17 08:08:58 51°15.259 2°51.141 255.7 11.9 249.6 12.1
2003-01-17 08:09:02 51°15.254 2°51.121 256.3 11.9 250.2 11.9
2003-01-17 08:09:08 51°15.248 2°51.091 256.5 11.9 250.3 12.2
2003-01-17 08:09:13 51°15.243 2°51.067 257 11.6 250.7 12.2
2003-01-17 08:09:18 51°15.238 2°51.044 257 11.2 251 12.1
2003-01-17 08:09:22 51°15.234 2°51.027 256.5 10.7 250.9 12.3
2003-01-17 08:09:28 51°15.228 2°51.001 255.5 10.1 250.2 12.1
2003-01-17 08:09:33 51°15.223 2°50.982 254 9.8 249.1 12.2
2003-01-17 08:09:38 51°15.219 2°50.963 252.2 9.4 247.5 12.3
2003-01-17 08:09:42 51°15.214 2°50.949 251 9 245.9 12.3
2003-01-17 08:09:48 51°15.209 2°50.928 250.2 8.7 245.4 12.2
2003-01-17 08:09:52 51°15.204 2°50.915 249.2 8.4 244.7 12.3
2003-01-17 08:09:58 51°15.199 2°50.895 248.5 8.1 244 12.4
2003-01-17 08:10:03 51°15.194 2°50.88 247.3 7.9 243.3 12.3
2003-01-17 08:10:08 51°15.189 2°50.865 246.3 7.7 242.5 12.3
2003-01-17 08:10:13 51°15.184 2°50.85 245.8 7.5 242.1 12.2
2003-01-17 08:10:18 51°15.179 2°50.836 245.2 7.4 241.6 12
2003-01-17 08:10:22 51°15.175 2°50.825 244.5 7.3 240.9 12.2
2003-01-17 08:10:28 51°15.169 2°50.808 244 7.2 240.4 12.1
2003-01-17 08:10:33 51°15.164 2°50.795 243.2 7.1 239.8 12.3
2003-01-17 08:10:38 51°15.159 2°50.782 243 7 239.3 12.3
2003-01-17 08:10:42 51°15.155 2°50.771 242.7 7 238.6 12.3
2003-01-17 08:10:48 51°15.149 2°50.756 242.8 6.9 238.7 12.4
2003-01-17 08:10:52 51°15.145 2°50.745 242.8 6.9 238.6 12.3
2003-01-17 08:10:58 51°15.139 2°50.73 243.5 6.8 239.4 12.3
2003-01-17 08:11:02 51°15.135 2°50.719 244.5 6.8 239.9 12.3
2003-01-17 08:11:08 51°15.13 2°50.703 245.5 6.8 241 12.3
2003-01-17 08:11:13 51°15.125 2°50.69 246.7 6.7 241.4 12.3
2003-01-17 08:11:18 51°15.121 2°50.677 247.7 6.7 242.5 12.3
2003-01-17 08:11:22 51°15.118 2°50.667 248.5 6.6 243.1 12.2
2003-01-17 08:11:28 51°15.113 2°50.651 249.7 6.6 244.5 12.3
2003-01-17 08:11:33 51°15.109 2°50.638 251.2 6.6 245.7 12.3
2003-01-17 08:11:38 51°15.106 2°50.624 252.3 6.6 247.1 12.4
2003-01-17 08:11:43 51°15.103 2°50.611 253 6.6 248.2 12.3
2003-01-17 08:11:48 51°15.099 2°50.597 253.5 6.5 249.1 12.1
2003-01-17 08:11:53 51°15.096 2°50.584 253.8 6.5 249.5 12.4
2003-01-17 08:11:58 51°15.093 2°50.57 254 6.5 249.9 12.3
2003-01-17 08:12:02 51°15.091 2°50.56 254 6.4 250 12.4
2003-01-17 08:12:08 51°15.087 2°50.544 253.7 6.4 249.7 12.3
2003-01-17 08:12:14 51°15.083 2°50.528 253.2 6.4 249.6 12.4
2003-01-17 08:12:18 51°15.081 2°50.517 252.5 6.4 248.8 12.2
2003-01-17 08:12:22 51°15.078 2°50.506 252 6.4 248.7 12.4
2003-01-17 08:12:28 51°15.074 2°50.491 251 6.3 247.5 12.4
2003-01-17 08:12:33 51°15.07 2°50.478 249.7 6.2 246.4 12.3
2003-01-17 08:12:38 51°15.066 2°50.466 247.5 6.2 244.8 12.4
2003-01-17 08:12:42 51°15.064 2°50.457 245.5 6.1 243 12.4
2003-01-17 08:12:48 51°15.059 2°50.442 243.3 6 241.1 12.3
2003-01-17 08:12:53 51°15.054 2°50.431 241.5 6 239.3 12.4
2003-01-17 08:12:58 51°15.05 2°50.42 239.5 5.9 237.3 12.4
2003-01-17 08:13:04 51°15.044 2°50.407 237.3 5.9 235.5 12.4
2003-01-17 08:13:08 51°15.041 2°50.399 235 5.8 234.1 12.3
2003-01-17 08:13:12 51°15.037 2°50.392 233 5.6 231.9 12.2
2003-01-17 08:13:18 51°15.031 2°50.382 231.2 5.3 230.1 12.4
2003-01-17 08:13:22 51°15.027 2°50.375 229.7 5 228.3 12.3
2003-01-17 08:13:28 51°15.022 2°50.366 227.8 4.8 227.4 12.4
2003-01-17 08:13:33 51°15.018 2°50.359 226.2 4.5 226.2 12.3
2003-01-17 08:13:38 51°15.014 2°50.353 224.8 4.3 224.8 12.3
2003-01-17 08:13:42 51°15.01 2°50.348 223.5 4.1 223 12.4
2003-01-17 08:13:48 51°15.006 2°50.341 222.3 3.9 222.3 12.3
2003-01-17 08:13:52 51°15.002 2°50.337 221.5 3.8 221.1 12.3
2003-01-17 08:13:58 51°14.997 2°50.331 220.5 3.7 219.3 12.2
2003-01-17 08:14:02 51°14.994 2°50.327 219.8 3.5 219.2 12.2
2003-01-17 08:14:08 51°14.99 2°50.322 219.7 3.4 218.8 12.3
2003-01-17 08:14:12 51°14.987 2°50.318 219.3 3.3 219.2 12.3
2003-01-17 08:14:18 51°14.983 2°50.313 219.2 3.2 219.7 12.3
2003-01-17 08:14:22 51°14.981 2°50.309 219.8 3 221.3 12.2
2003-01-17 08:14:28 51°14.977 2°50.304 220.3 3 221.4 12.3
2003-01-17 08:14:33 51°14.974 2°50.3 221 2.9 222.4 12.3
2003-01-17 08:14:38 51°14.972 2°50.296 221.5 2.8 222.4 12.1
2003-01-17 08:14:43 51°14.969 2°50.292 221.7 2.6 222.1 12.3
2003-01-17 08:14:48 51°14.967 2°50.288 221.7 2.6 221.9 12.2
2003-01-17 08:14:52 51°14.965 2°50.286 221.3 2.4 221.6 12.1
2003-01-17 08:14:58 51°14.962 2°50.281 221.5 2.4 222.8 12.1
2003-01-17 08:15:03 51°14.959 2°50.278 221.5 2.3 223.7 12.3
2003-01-17 08:15:08 51°14.957 2°50.274 221.3 2.2 223.9 12.4
2003-01-17 08:15:13 51°14.955 2°50.271 221.5 2.2 223.1 12.3
2003-01-17 08:15:18 51°14.953 2°50.268 221.7 2.1 223.1 12.2
2003-01-17 08:15:24 51°14.951 2°50.264 221.2 2.1 223 12.3
2003-01-17 08:15:28 51°14.949 2°50.262 220.3 2 223.1 12.3
2003-01-17 08:15:32 51°14.947 2°50.259 220 1.9 224.9 12.3
2003-01-17 08:15:38 51°14.945 2°50.256 219.8 1.9 225.1 12.3
2003-01-17 08:15:43 51°14.943 2°50.252 219.8 1.9 225.8 12.4
2003-01-17 08:15:48 51°14.941 2°50.249 219.5 1.8 226.3 12.3
2003-01-17 08:15:53 51°14.939 2°50.247 219.2 1.8 224.7 12.2
2003-01-17 08:15:58 51°14.938 2°50.244 218.3 1.7 223.6 12.2
2003-01-17 08:16:04 51°14.936 2°50.241 217 1.6 221.8 12.1
2003-01-17 08:16:08 51°14.934 2°50.24 215.3 1.5 219.5 12.4
2003-01-17 08:16:13 51°14.933 2°50.237 213.7 1.5 220.6 12.3
2003-01-17 08:16:18 51°14.931 2°50.236 212.3 1.4 217.8 12.3
2003-01-17 08:16:22 51°14.93 2°50.234 211.3 1.4 218.4 12.3
2003-01-17 08:16:28 51°14.929 2°50.232 210 1.3 217.4 12.3
2003-01-17 08:16:32 51°14.928 2°50.231 208.8 1.3 216.3 12.2
2003-01-17 08:16:38 51°14.926 2°50.229 207.5 1.2 213.2 12.2
2003-01-17 08:16:42 51°14.925 2°50.227 206.5 1.1 215.3 12.1
2003-01-17 08:16:48 51°14.923 2°50.226 205.8 1.1 213.4 12.3
2003-01-17 08:16:53 51°14.922 2°50.225 204 1 205.2 11.9
2003-01-17 08:16:58 51°14.921 2°50.225 201.8 0.9 200.6 12
2003-01-17 08:17:02 51°14.92 2°50.224 200.8 0.8 199.8 12.2
2003-01-17 08:17:08 51°14.919 2°50.223 199.5 0.8 199.1 12.2
2003-01-17 08:17:13 51°14.918 2°50.223 197.5 0.8 196.2 12.1
2003-01-17 08:17:18 51°14.917 2°50.223 196.2 0.8 194.4 12.3
2003-01-17 08:17:23 51°14.916 2°50.222 194.7 0.7 195.6 12.3
2003-01-17 08:17:28 51°14.915 2°50.222 193.2 0.7 194.1 12.3
2003-01-17 08:17:33 51°14.914 2°50.222 191 0.7 189.8 12.3
2003-01-17 08:17:38 51°14.913 2°50.221 189.2 0.7 189.7 12.2
2003-01-17 08:17:42 51°14.913 2°50.221 187.2 0.6 185.2 12.2
2003-01-17 08:17:48 51°14.911 2°50.221 185.7 0.6 182.9 12.3
2003-01-17 08:17:52 51°14.911 2°50.221 184.3 0.6 179.9 12.3
2003-01-17 08:17:58 51°14.91 2°50.221 183.2 0.6 175.4 12.2
2003-01-17 08:18:02 51°14.909 2°50.221 180.8 0.6 165.2 12.2
2003-01-17 08:18:08 51°14.908 2°50.222 179 0.5 162 12.3
2003-01-17 08:18:12 51°14.908 2°50.222 177.2 0.5 153.3 11.6
2003-01-17 08:18:18 51°14.907 2°50.222 175.5 0.5 151 12.3
2003-01-17 08:18:22 51°14.907 2°50.223 174.2 0.5 141 12.2
2003-01-17 08:18:28 51°14.907 2°50.223 172.5 0.5 143.6 12.1
2003-01-17 08:18:33 51°14.906 2°50.224 170.7 0.5 138.9 12.3
2003-01-17 08:18:38 51°14.906 2°50.225 169 0.5 132.7 12.3
2003-01-17 08:18:42 51°14.906 2°50.226 167.3 0.5 127.8 12.3
2003-01-17 08:18:48 51°14.905 2°50.227 166 0.5 125.6 12.3
2003-01-17 08:18:54 51°14.905 2°50.228 164.7 0.6 120.4 12.1
2003-01-17 08:18:58 51°14.905 2°50.229 163.5 0.6 124.7 12.3
2003-01-17 08:19:03 51°14.905 2°50.23 162.8 0.6 124.9 12.2
2003-01-17 08:19:08 51°14.904 2°50.231 162 0.6 126.1 12.4
2003-01-17 08:19:13 51°14.904 2°50.232 161 0.7 122.6 12.2
2003-01-17 08:19:18 51°14.904 2°50.233 159.7 0.7 122.3 12.4
2003-01-17 08:19:22 51°14.903 2°50.234 159.2 0.7 121.9 12.3
2003-01-17 08:19:28 51°14.903 2°50.235 158.7 0.7 123.6 12.3
2003-01-17 08:19:32 51°14.902 2°50.236 158.3 0.7 125.2 12.1
2003-01-17 08:19:38 51°14.901 2°50.238 157.5 0.7 129.1 12.2
2003-01-17 08:19:42 51°14.901 2°50.239 158 0.8 132.6 12.3
2003-01-17 08:19:48 51°14.9 2°50.24 158.7 0.9 138.2 12.1
2003-01-17 08:19:53 51°14.899 2°50.241 159.5 1 142.6 12.3
2003-01-17 08:19:58 51°14.898 2°50.243 160.5 1 139.7 12.1
2003-01-17 08:20:02 51°14.897 2°50.244 161.3 1.1 143.6 12.3
2003-01-17 08:20:08 51°14.895 2°50.246 162.5 1.1 147.2 12.4
2003-01-17 08:20:13 51°14.893 2°50.247 163.8 1.2 150.7 12.3
2003-01-17 08:20:18 51°14.892 2°50.248 165.5 1.3 151.2 12.4
2003-01-17 08:20:22 51°14.891 2°50.249 167.5 1.3 154.7 12.5
2003-01-17 08:20:28 51°14.889 2°50.25 169.3 1.3 156.7 12.4
2003-01-17 08:20:33 51°14.887 2°50.251 170.5 1.3 157.5 12.4
2003-01-17 08:20:38 51°14.885 2°50.252 172.2 1.4 159.8 12.4
2003-01-17 08:20:42 51°14.883 2°50.253 173.5 1.4 159.6 12.3
2003-01-17 08:20:48 51°14.881 2°50.254 174.7 1.4 162.2 12.2
2003-01-17 08:20:53 51°14.879 2°50.255 177 1.5 167.2 12.2
2003-01-17 08:20:58 51°14.877 2°50.256 179 1.5 170.5 12.2
2003-01-17 08:21:03 51°14.875 2°50.256 181.2 1.5 173.5 12.2
2003-01-17 08:21:08 51°14.873 2°50.256 183.7 1.5 176 12.2
2003-01-17 08:21:13 51°14.87 2°50.256 186 1.5 178.8 12
2003-01-17 08:21:18 51°14.868 2°50.257 188.3 1.5 181.8 12.2
2003-01-17 08:21:24 51°14.865 2°50.257 190.7 1.5 182.8 12.3
2003-01-17 08:21:28 51°14.863 2°50.257 192.8 1.5 182.5 12.2
2003-01-17 08:21:33 51°14.86 2°50.257 195 1.5 184.8 12.2
2003-01-17 08:21:38 51°14.858 2°50.256 196.2 1.6 187.6 12.2
2003-01-17 08:21:42 51°14.856 2°50.256 197.8 1.7 190.7 12.2
2003-01-17 08:21:48 51°14.853 2°50.255 199.8 1.7 193.7 12.2
2003-01-17 08:21:52 51°14.851 2°50.254 202.2 1.8 196.2 12.2
2003-01-17 08:21:58 51°14.849 2°50.252 204.3 1.7 199.7 12.1
2003-01-17 08:22:02 51°14.847 2°50.251 205.8 1.7 200.6 12.2
2003-01-17 08:22:08 51°14.844 2°50.249 207.3 1.7 202.2 12.3
2003-01-17 08:22:13 51°14.842 2°50.248 208.3 1.8 204.4 12.1
2003-01-17 08:22:18 51°14.84 2°50.246 209.5 1.8 207.8 12.2
2003-01-17 08:22:23 51°14.838 2°50.244 210.5 1.8 208.2 12.2
2003-01-17 08:22:28 51°14.835 2°50.242 211.5 1.8 209.2 12.1
2003-01-17 08:22:33 51°14.833 2°50.24 212.2 1.8 210.5 12
2003-01-17 08:22:38 51°14.831 2°50.237 212.8 1.8 211.5 12.2
2003-01-17 08:22:42 51°14.829 2°50.236 213.3 1.9 211.5 12
2003-01-17 08:22:48 51°14.827 2°50.233 213.7 1.8 213.7 12.2
2003-01-17 08:22:52 51°14.825 2°50.231 214 1.8 215.8 12.2
2003-01-17 08:22:58 51°14.823 2°50.228 214.7 1.8 216.4 12.1
2003-01-17 08:23:02 51°14.822 2°50.226 214.8 1.8 217.6 12.2
2003-01-17 08:23:08 51°14.819 2°50.223 215.3 1.8 219 12.1
2003-01-17 08:23:13 51°14.818 2°50.22 216 1.7 220.9 12.2
2003-01-17 08:23:18 51°14.816 2°50.218 215.8 1.7 221.9 12.1
2003-01-17 08:23:22 51°14.814 2°50.216 215.8 1.6 221.4 12.2
2003-01-17 08:23:28 51°14.812 2°50.214 215.2 1.6 220.3 11.9
2003-01-17 08:23:32 51°14.811 2°50.212 214.3 1.6 220.3 12.2
2003-01-17 08:23:38 51°14.809 2°50.209 213.2 1.6 217.4 12
2003-01-17 08:23:42 51°14.807 2°50.208 211.5 1.6 217 12.2
2003-01-17 08:23:48 51°14.805 2°50.205 209.5 1.5 213.9 12.1
2003-01-17 08:23:52 51°14.804 2°50.204 207.2 1.5 211.8 12.1
2003-01-17 08:23:58 51°14.802 2°50.202 205.2 1.5 209.9 12
2003-01-17 08:24:02 51°14.8 2°50.201 202.2 1.5 205 12.1
2003-01-17 08:24:08 51°14.798 2°50.199 199.7 1.4 203 12.1
2003-01-17 08:24:13 51°14.796 2°50.198 197.2 1.4 200.7 12.1
2003-01-17 08:24:18 51°14.794 2°50.197 194.7 1.4 199.6 12.1
2003-01-17 08:24:24 51°14.792 2°50.196 192.5 1.4 194 12.1
2003-01-17 08:24:28 51°14.791 2°50.196 190.5 1.4 188.7 12
2003-01-17 08:24:32 51°14.79 2°50.196 187.8 1.3 185.1 11.9
2003-01-17 08:24:38 51°14.788 2°50.196 186.3 1.3 182.7 12
2003-01-17 08:24:44 51°14.786 2°50.196 185.5 1.3 181.5 12.1
2003-01-17 08:24:48 51°14.784 2°50.196 185.2 1.3 181.4 12.2
2003-01-17 08:24:52 51°14.783 2°50.196 184.8 1.3 179.1 12.2
2003-01-17 08:24:58 51°14.781 2°50.196 184.5 1.3 176.6 12.2
2003-01-17 08:25:02 51°14.779 2°50.196 184.8 1.3 177.1 12.1
2003-01-17 08:25:08 51°14.777 2°50.196 185.3 1.2 175.6 12.2
2003-01-17 08:25:13 51°14.775 2°50.196 185.8 1.2 176.4 12.2
2003-01-17 08:25:18 51°14.774 2°50.197 186 1.3 176.5 12.1
2003-01-17 08:25:22 51°14.772 2°50.197 186.2 1.2 172.3 12.1
2003-01-17 08:25:28 51°14.77 2°50.198 185.5 1.2 169.4 12.1
2003-01-17 08:25:32 51°14.769 2°50.198 185.7 1.2 172.5 12.1
2003-01-17 08:25:38 51°14.767 2°50.199 186.3 1.2 174.7 12.2
2003-01-17 08:25:42 51°14.766 2°50.199 186.7 1.2 173.9 12.3
2003-01-17 08:25:48 51°14.764 2°50.199 187.7 1.3 176.2 12.3
2003-01-17 08:25:53 51°14.762 2°50.199 189.2 1.3 178.8 12.2
2003-01-17 08:25:58 51°14.76 2°50.199 189.8 1.4 180.1 12.2
2003-01-17 08:26:02 51°14.758 2°50.199 190.5 1.4 180.8 12.2
2003-01-17 08:26:08 51°14.756 2°50.199 191 1.5 183.9 12.1
2003-01-17 08:26:13 51°14.753 2°50.198 191.7 1.6 182.9 11.7
2003-01-17 08:26:18 51°14.75 2°50.197 193 1.7 185.3 12
2003-01-17 08:26:22 51°14.748 2°50.197 194.3 1.8 187.9 12
2003-01-17 08:26:28 51°14.745 2°50.196 195.3 1.9 188 12
2003-01-17 08:26:33 51°14.742 2°50.195 196.2 1.9 188.8 12
2003-01-17 08:26:38 51°14.74 2°50.195 197.3 2 189.1 12
2003-01-17 08:26:42 51°14.737 2°50.194 198.2 2.1 191.7 12
2003-01-17 08:26:48 51°14.733 2°50.193 199.3 2.1 192.7 12.1
2003-01-17 08:26:53 51°14.731 2°50.191 200.3 2.1 194.7 12.1
2003-01-17 08:26:58 51°14.727 2°50.19 201.3 2.2 194.8 12
2003-01-17 08:27:04 51°14.724 2°50.189 201.8 2.3 194.9 11.8
2003-01-17 08:27:08 51°14.721 2°50.188 202.7 2.3 196.4 11.8
2003-01-17 08:27:12 51°14.718 2°50.187 204.5 2.3 196 12
2003-01-17 08:27:18 51°14.714 2°50.185 205.3 2.4 197.9 12
2003-01-17 08:27:22 51°14.712 2°50.183 206.5 2.4 199.6 12.1
2003-01-17 08:27:28 51°14.708 2°50.181 207.7 2.4 200.9 12.2
2003-01-17 08:27:32 51°14.706 2°50.179 209.3 2.5 201.1 11.9
2003-01-17 08:27:38 51°14.702 2°50.176 210.8 2.5 203.3 12.2
2003-01-17 08:27:42 51°14.7 2°50.174 211.7 2.5 204.5 12.1
2003-01-17 08:27:48 51°14.696 2°50.17 212.8 2.5 207.8 12
2003-01-17 08:27:53 51°14.694 2°50.167 214 2.5 210.1 12.1
2003-01-17 08:27:58 51°14.691 2°50.164 215.3 2.5 211.4 12.1
2003-01-17 08:28:02 51°14.689 2°50.162 216.3 2.5 212.5 12.1
2003-01-17 08:28:08 51°14.685 2°50.157 217.2 2.6 214.3 12.1
2003-01-17 08:28:12 51°14.683 2°50.155 218.2 2.6 215.6 12.1
2003-01-17 08:28:18 51°14.679 2°50.15 219.3 2.5 217.2 12
2003-01-17 08:28:22 51°14.677 2°50.148 219.8 2.6 216.4 12
2003-01-17 08:28:28 51°14.674 2°50.144 220.5 2.6 216.9 11.9
2003-01-17 08:28:32 51°14.672 2°50.141 221.5 2.6 218.9 11.9
2003-01-17 08:28:38 51°14.668 2°50.136 222.8 2.6 221 12
2003-01-17 08:28:43 51°14.666 2°50.133 224.2 2.6 221.2 11.8
2003-01-17 08:28:48 51°14.663 2°50.129 225.2 2.6 221.1 12
2003-01-17 08:28:53 51°14.661 2°50.125 225.5 2.6 221.8 12
2003-01-17 08:28:58 51°14.658 2°50.121 226 2.6 222.3 12
2003-01-17 08:29:02 51°14.656 2°50.117 227 2.6 225.2 12
2003-01-17 08:29:08 51°14.653 2°50.112 227.8 2.6 225.8 12
2003-01-17 08:29:13 51°14.65 2°50.108 229 2.6 227 12
2003-01-17 08:29:18 51°14.648 2°50.104 230 2.6 229.7 12
2003-01-17 08:29:22 51°14.647 2°50.1 231.2 2.6 234 12
2003-01-17 08:29:28 51°14.645 2°50.094 232.2 2.5 235.5 11.9
2003-01-17 08:29:33 51°14.643 2°50.09 233.3 2.6 235.8 11.8
2003-01-17 08:29:38 51°14.641 2°50.085 234 2.6 236.5 12
2003-01-17 08:29:42 51°14.639 2°50.081 234.3 2.6 239.1 12
2003-01-17 08:29:48 51°14.637 2°50.075 234.7 2.6 240.9 12
2003-01-17 08:29:53 51°14.635 2°50.07 235.3 2.6 241.2 11.9
2003-01-17 08:29:58 51°14.633 2°50.065 235.8 2.6 242.1 11.9
2003-01-17 08:30:04 51°14.631 2°50.059 236.5 2.6 244.2 11.8
2003-01-17 08:30:08 51°14.629 2°50.055 236.7 2.6 244.5 11.7
2003-01-17 08:30:13 51°14.628 2°50.05 237.2 2.6 246.7 11.6
2003-01-17 08:30:18 51°14.626 2°50.045 237.7 2.6 247.1 12
2003-01-17 08:30:23 51°14.624 2°50.04 238.2 2.6 245.4 12
2003-01-17 08:30:28 51°14.622 2°50.035 238.7 2.6 244.5 12
2003-01-17 08:30:33 51°14.62 2°50.03 239.3 2.6 243.4 12
2003-01-17 08:30:38 51°14.618 2°50.025 239.7 2.7 243.1 11.7
2003-01-17 08:30:42 51°14.616 2°50.021 239.8 2.7 242.6 12
2003-01-17 08:30:48 51°14.614 2°50.015 240.2 2.7 242.9 11.6
2003-01-17 08:30:53 51°14.612 2°50.009 240.7 2.7 244 11.9
2003-01-17 08:30:58 51°14.61 2°50.004 241.3 2.8 244.9 11.9
2003-01-17 08:31:02 51°14.609 2°50 242.3 2.8 245.6 11.9
2003-01-17 08:31:08 51°14.607 2°49.993 243.5 2.7 245.5 11.9
2003-01-17 08:31:12 51°14.606 2°49.989 244.5 2.7 245.7 11.9
2003-01-17 08:31:18 51°14.605 2°49.982 245.3 2.6 246.6 11.9
2003-01-17 08:31:24 51°14.603 2°49.976 246 2.6 247.1 11.9
2003-01-17 08:31:28 51°14.602 2°49.972 246.5 2.6 247.7 11.8
2003-01-17 08:31:33 51°14.601 2°49.966 247.5 2.6 249 12
2003-01-17 08:31:38 51°14.6 2°49.96 248.5 2.6 249.2 11.9
2003-01-17 08:31:43 51°14.599 2°49.955 249.5 2.7 251.3 12
2003-01-17 08:31:48 51°14.598 2°49.949 250.5 2.7 252.6 11.8
2003-01-17 08:31:53 51°14.597 2°49.943 251.7 2.7 253.9 12
2003-01-17 08:31:58 51°14.596 2°49.938 252.7 2.7 254.4 11.9
2003-01-17 08:32:02 51°14.595 2°49.933 254 2.7 255.3 11.8
2003-01-17 08:32:08 51°14.594 2°49.926 254.5 2.7 255.3 12.1
2003-01-17 08:32:13 51°14.593 2°49.92 255 2.8 255.6 12
2003-01-17 08:32:18 51°14.592 2°49.914 255.5 2.8 256.3 12.1
2003-01-17 08:32:22 51°14.591 2°49.91 256.3 2.8 256.6 12
2003-01-17 08:32:28 51°14.59 2°49.903 257.2 2.8 257.2 12
2003-01-17 08:32:33 51°14.589 2°49.896 257.7 2.8 257.6 12
2003-01-17 08:32:38 51°14.589 2°49.89 258.5 2.9 258.1 12
2003-01-17 08:32:43 51°14.588 2°49.883 259.2 2.9 259.5 11.8
2003-01-17 08:32:48 51°14.587 2°49.877 260.2 2.9 259.2 11.9
2003-01-17 08:32:54 51°14.586 2°49.869 261 2.9 260 11.9
2003-01-17 08:32:58 51°14.586 2°49.864 261.5 3 260.6 12
2003-01-17 08:33:02 51°14.585 2°49.859 262.2 3 260.9 12.1
2003-01-17 08:33:08 51°14.584 2°49.851 263 3 261.7 12
2003-01-17 08:33:13 51°14.584 2°49.844 263.8 3 263.1 12
2003-01-17 08:33:18 51°14.583 2°49.838 264.7 3 264.3 12.1
2003-01-17 08:33:22 51°14.583 2°49.832 265.5 3 264.6 12
2003-01-17 08:33:28 51°14.583 2°49.824 266.3 3 265.6 12
2003-01-17 08:33:33 51°14.583 2°49.817 267.3 3.1 265.8 11.7
2003-01-17 08:33:38 51°14.583 2°49.81 268 3 267 12.1
2003-01-17 08:33:44 51°14.583 2°49.802 268.7 3 268 11.9
2003-01-17 08:33:48 51°14.583 2°49.797 269.2 2.9 268.5 12
2003-01-17 08:33:53 51°14.583 2°49.791 269.8 2.9 269 11.9
2003-01-17 08:33:58 51°14.583 2°49.784 270.5 2.8 269.8 11.9
2003-01-17 08:34:02 51°14.583 2°49.78 271.3 2.8 270.5 12
2003-01-17 08:34:08 51°14.583 2°49.772 271.8 2.7 270.8 12
2003-01-17 08:34:14 51°14.583 2°49.764 272.5 2.7 270.7 12.1
2003-01-17 08:34:18 51°14.583 2°49.76 272.8 2.7 272.2 12
2003-01-17 08:34:22 51°14.583 2°49.755 273.3 2.7 272.3 11.9
2003-01-17 08:34:28 51°14.583 2°49.748 273.7 2.7 273.2 12.1
2003-01-17 08:34:32 51°14.583 2°49.743 274.2 2.6 273.8 12.1
2003-01-17 08:34:38 51°14.584 2°49.736 274.8 2.6 275.3 12.1
2003-01-17 08:34:42 51°14.584 2°49.731 275.7 2.6 275.4 11.9
2003-01-17 08:34:48 51°14.584 2°49.724 276.3 2.7 276.8 12.1
2003-01-17 08:34:53 51°14.584 2°49.718 277 2.7 277.7 12.1
2003-01-17 08:34:58 51°14.584 2°49.712 277.3 2.7 277.8 12.2
2003-01-17 08:35:02 51°14.585 2°49.708 277.7 2.7 277.8 12.2
2003-01-17 08:35:08 51°14.586 2°49.701 278.2 2.6 279 12.2
2003-01-17 08:35:13 51°14.587 2°49.695 278.5 2.6 279.2 12.1
2003-01-17 08:35:18 51°14.588 2°49.69 279 2.6 280.5 12.1
2003-01-17 08:35:24 51°14.589 2°49.683 279.7 2.6 280.4 12.1
2003-01-17 08:35:28 51°14.589 2°49.679 280.2 2.6 281.3 12.1
2003-01-17 08:35:32 51°14.59 2°49.675 280.7 2.6 281 12.1
2003-01-17 08:35:38 51°14.591 2°49.668 281.2 2.6 281.4 12.3
2003-01-17 08:35:42 51°14.592 2°49.663 281.3 2.6 282.2 12.2
2003-01-17 08:35:48 51°14.592 2°49.656 281.7 2.6 281.8 12.1
2003-01-17 08:35:53 51°14.592 2°49.651 282.2 2.5 282 12
2003-01-17 08:35:58 51°14.593 2°49.646 282.5 2.5 281.8 12.2
2003-01-17 08:36:04 51°14.594 2°49.639 282.8 2.5 282.9 12.2
2003-01-17 08:36:08 51°14.595 2°49.634 283.3 2.5 284.5 12.2
2003-01-17 08:36:12 51°14.595 2°49.63 284.2 2.5 286.2 12.2
2003-01-17 08:36:18 51°14.596 2°49.624 285 2.5 286.8 12.2
2003-01-17 08:36:22 51°14.597 2°49.62 285.5 2.6 286.7 12.2
2003-01-17 08:36:28 51°14.598 2°49.613 286 2.6 286.6 12
2003-01-17 08:36:32 51°14.599 2°49.609 286.2 2.6 286.7 12.2
2003-01-17 08:36:38 51°14.601 2°49.602 286.5 2.6 287 12.3
2003-01-17 08:36:42 51°14.601 2°49.598 286.8 2.7 287.5 12.2
2003-01-17 08:36:48 51°14.603 2°49.59 287.3 2.7 288.4 12.1
2003-01-17 08:36:53 51°14.604 2°49.585 287.7 2.7 287.5 12.2
2003-01-17 08:36:58 51°14.605 2°49.58 288.2 2.7 288.1 12.2
2003-01-17 08:37:04 51°14.606 2°49.573 288.5 2.7 286.8 12.2
2003-01-17 08:37:08 51°14.607 2°49.569 288.8 2.7 288.2 12.2
2003-01-17 08:37:13 51°14.608 2°49.563 289 2.7 287.7 12.2
2003-01-17 08:37:18 51°14.61 2°49.558 289.8 2.7 288.7 12.3
2003-01-17 08:37:22 51°14.61 2°49.553 290.5 2.7 289.2 12.3
2003-01-17 08:37:28 51°14.612 2°49.547 291.2 2.7 290.1 12.3
2003-01-17 08:37:33 51°14.614 2°49.541 292.3 2.7 291.4 12.3
2003-01-17 08:37:38 51°14.615 2°49.535 293 2.7 291.5 12.2
2003-01-17 08:37:42 51°14.616 2°49.531 293.8 2.8 292.3 12.4
2003-01-17 08:37:48 51°14.618 2°49.524 294.7 2.8 292.4 12.3
2003-01-17 08:37:53 51°14.62 2°49.518 295.3 2.8 293 12.4
2003-01-17 08:37:58 51°14.622 2°49.513 296.2 2.8 294.3 12.4
2003-01-17 08:38:03 51°14.623 2°49.507 296.8 2.8 294.6 12.4
2003-01-17 08:38:08 51°14.625 2°49.501 297.5 2.8 295.5 12.3
2003-01-17 08:38:14 51°14.627 2°49.495 297.8 2.8 295.2 12.2
2003-01-17 08:38:18 51°14.628 2°49.49 298.2 2.8 295.9 12.3
2003-01-17 08:38:22 51°14.63 2°49.486 298.7 2.8 297.1 12.4
2003-01-17 08:38:28 51°14.632 2°49.479 299.5 2.7 298.6 12.2
2003-01-17 08:38:32 51°14.633 2°49.475 300.2 2.7 298.7 12.4
2003-01-17 08:38:38 51°14.635 2°49.469 300.7 2.7 299.9 12.3
2003-01-17 08:38:42 51°14.637 2°49.465 301.7 2.7 300.2 12.3
2003-01-17 08:38:48 51°14.639 2°49.458 302 2.8 300.8 12.4
2003-01-17 08:38:52 51°14.641 2°49.454 302.5 2.8 300.5 12.3
2003-01-17 08:38:58 51°14.644 2°49.448 302.7 2.8 301.6 12.3
2003-01-17 08:39:02 51°14.645 2°49.443 303 2.8 302.4 12.5
2003-01-17 08:39:08 51°14.648 2°49.437 303.3 2.8 302.7 12.5
2003-01-17 08:39:13 51°14.65 2°49.432 303.7 2.8 303.2 12.5
2003-01-17 08:39:18 51°14.652 2°49.427 304 2.8 303 12.3
2003-01-17 08:39:24 51°14.655 2°49.421 304.2 2.8 303.3 12.4
2003-01-17 08:39:28 51°14.656 2°49.417 304.8 2.8 303.2 12.5
2003-01-17 08:39:32 51°14.658 2°49.412 305 2.8 304.9 12.5
2003-01-17 08:39:38 51°14.66 2°49.406 305.8 2.8 305.4 12.4
2003-01-17 08:39:42 51°14.661 2°49.402 306.5 2.8 305.6 12.4
2003-01-17 08:39:48 51°14.664 2°49.396 307.3 2.8 305.6 12.5
2003-01-17 08:39:53 51°14.667 2°49.391 307.3 2.8 306 12.4
2003-01-17 08:39:58 51°14.669 2°49.386 307.5 2.8 305.8 12.4
2003-01-17 08:40:02 51°14.671 2°49.382 307.5 2.8 305.9 12.5
2003-01-17 08:40:08 51°14.674 2°49.376 308 2.8 306 12.5
2003-01-17 08:40:12 51°14.675 2°49.372 308.2 2.8 306.2 12.4
2003-01-17 08:40:18 51°14.678 2°49.366 308.7 2.8 306.5 12.5
2003-01-17 08:40:24 51°14.681 2°49.36 308.8 2.8 306.8 12.6
2003-01-17 08:40:28 51°14.683 2°49.356 309.3 2.9 306.8 12.6
2003-01-17 08:40:33 51°14.685 2°49.351 310.2 2.9 307.8 12.6
2003-01-17 08:40:38 51°14.687 2°49.346 310.8 2.8 308.1 12.6
2003-01-17 08:40:43 51°14.69 2°49.341 311.8 2.8 309.1 12.6
2003-01-17 08:40:48 51°14.692 2°49.336 312.2 2.8 310.1 12.5
2003-01-17 08:40:52 51°14.694 2°49.333 313.2 2.8 311.2 12.5
2003-01-17 08:40:58 51°14.698 2°49.327 314 2.9 311.7 12.4
2003-01-17 08:41:02 51°14.7 2°49.324 314.7 2.9 312.7 12.5
2003-01-17 08:41:08 51°14.703 2°49.318 315.3 2.9 313.7 12.6
2003-01-17 08:41:13 51°14.706 2°49.314 316.2 2.8 314.8 12.4
2003-01-17 08:41:18 51°14.709 2°49.309 317.3 2.8 314.3 12.4
2003-01-17 08:41:22 51°14.711 2°49.306 318 2.8 315.1 12.6
2003-01-17 08:41:28 51°14.714 2°49.301 318.5 2.8 316.1 12.7
2003-01-17 08:41:33 51°14.718 2°49.296 319.3 2.8 317 12.7
2003-01-17 08:41:38 51°14.721 2°49.292 320 2.8 318.3 12.8
2003-01-17 08:41:43 51°14.724 2°49.288 321 2.8 319.1 12.7
2003-01-17 08:41:48 51°14.727 2°49.284 321.2 2.8 320.7 12.6
2003-01-17 08:41:53 51°14.73 2°49.28 322.2 2.8 320.3 12.4
2003-01-17 08:41:58 51°14.733 2°49.277 322.5 2.8 321.1 12.8
2003-01-17 08:42:02 51°14.735 2°49.274 323 2.8 322.1 12.8
2003-01-17 08:42:08 51°14.739 2°49.269 324.2 2.8 323.5 12.8
2003-01-17 08:42:13 51°14.742 2°49.266 325 2.8 324.1 12.7
2003-01-17 08:42:18 51°14.745 2°49.262 325.3 2.7 325.4 12.8
2003-01-17 08:42:22 51°14.747 2°49.259 326.8 2.7 325.6 12.8
2003-01-17 08:42:28 51°14.751 2°49.256 327.7 2.7 325.7 12.8
2003-01-17 08:42:32 51°14.753 2°49.253 328.3 2.8 327.1 12.7
2003-01-17 08:42:38 51°14.757 2°49.249 329 2.8 327.9 12.8
2003-01-17 08:42:42 51°14.76 2°49.246 330.3 2.8 329.3 12.8
2003-01-17 08:42:48 51°14.764 2°49.242 331.2 2.8 329.3 12.8
2003-01-17 08:42:52 51°14.766 2°49.24 332 2.8 329.9 12.9
2003-01-17 08:42:58 51°14.771 2°49.236 332.8 2.8 330.3 12.9
2003-01-17 08:43:02 51°14.774 2°49.234 333.7 2.9 331.7 12.9
2003-01-17 08:43:08 51°14.778 2°49.23 334.2 2.9 332.9 12.9
2003-01-17 08:43:12 51°14.781 2°49.228 335.2 2.9 334.2 12.9
2003-01-17 08:43:18 51°14.785 2°49.224 336.5 2.9 334.7 12.8
2003-01-17 08:43:22 51°14.788 2°49.222 337.5 2.9 335.6 12.9
2003-01-17 08:43:28 51°14.792 2°49.219 338.5 2.9 336.5 12.9
2003-01-17 08:43:33 51°14.796 2°49.217 339.7 3 336.7 12.7
2003-01-17 08:43:38 51°14.8 2°49.215 340 3 337.9 12.8
2003-01-17 08:43:43 51°14.804 2°49.212 341.2 2.9 340.7 12.8
2003-01-17 08:43:48 51°14.808 2°49.21 343.8 2.9 342.2 12.8
2003-01-17 08:43:53 51°14.812 2°49.209 345.5 2.9 344.1 12.5
2003-01-17 08:43:58 51°14.816 2°49.207 346.7 2.9 345.2 12.8
2003-01-17 08:44:02 51°14.819 2°49.206 347.8 2.9 345 12.8
2003-01-17 08:44:08 51°14.824 2°49.204 349.2 3 346.4 12.7
2003-01-17 08:44:13 51°14.828 2°49.203 350.5 3 347.8 12.8
2003-01-17 08:44:18 51°14.832 2°49.202 352.7 3 349.3 13
2003-01-17 08:44:23 51°14.836 2°49.201 354.3 3 350.8 13
2003-01-17 08:44:28 51°14.84 2°49.2 356.3 3.1 351.5 13
2003-01-17 08:44:33 51°14.845 2°49.199 358.2 3.1 353.6 12.9
2003-01-17 08:44:38 51°14.85 2°49.199   3.2 356.9 12.8
2003-01-17 08:44:42 51°14.853 2°49.199 2.3 3.1 0.5 12.8
2003-01-17 08:44:48 51°14.858 2°49.199 5.7 3.1 2.3 12.8
2003-01-17 08:44:53 51°14.863 2°49.2 9 3.1 5.1 12.8
2003-01-17 08:44:58 51°14.867 2°49.2 12.2 3.1 7 13
2003-01-17 08:45:02 51°14.87 2°49.201 14.7 3.1 8.8 13.1
2003-01-17 08:45:08 51°14.875 2°49.203 17.5 3.1 11.4 13.2
2003-01-17 08:45:13 51°14.879 2°49.205 20.7 3.1 14.2 13.3
2003-01-17 08:45:18 51°14.883 2°49.207 24 3.1 17.8 13.2
2003-01-17 08:45:22 51°14.887 2°49.209 27.5 3.1 19.4 13.2
2003-01-17 08:45:28 51°14.891 2°49.212 30.2 3.1 22.6 13.1
2003-01-17 08:45:33 51°14.895 2°49.216 32.8 3.1 25.7 13.1
2003-01-17 08:45:38 51°14.899 2°49.218 34.8 3.1 27 13
2003-01-17 08:45:42 51°14.902 2°49.221 36.5 3.1 29.3 13.1
2003-01-17 08:45:48 51°14.906 2°49.226 38.7 3.1 31 13.1
2003-01-17 08:45:53 51°14.91 2°49.229 40.7 3.1 32.7 12.8
2003-01-17 08:45:58 51°14.914 2°49.233 43 3.1 34.5 13.1
2003-01-17 08:46:02 51°14.916 2°49.236 45.2 3.1 36.5 13.1
2003-01-17 08:46:08 51°14.92 2°49.241 46.8 3.1 37.3 13
2003-01-17 08:46:13 51°14.924 2°49.246 48.5 3.1 39.5 13.1
2003-01-17 08:46:18 51°14.927 2°49.25 50.5 3 40.3 13
2003-01-17 08:46:24 51°14.93 2°49.255 51.8 3 41.8 13.1
2003-01-17 08:46:28 51°14.932 2°49.259 53.5 3 43 13.1
2003-01-17 08:46:33 51°14.936 2°49.263 54.7 2.9 44.3 13.2
2003-01-17 08:46:38 51°14.939 2°49.267 56.2 2.9 46.3 12.9
2003-01-17 08:46:42 51°14.941 2°49.271 57.8 2.9 47.9 13.1
2003-01-17 08:46:48 51°14.944 2°49.277 58.8 2.9 49.9 13.1
2003-01-17 08:46:53 51°14.947 2°49.282 60.3 2.8 50.1 13.1
2003-01-17 08:46:58 51°14.949 2°49.287 61.7 2.8 52.6 13.1
2003-01-17 08:47:03 51°14.951 2°49.292 62.8 2.8 52.9 13.2
2003-01-17 08:47:08 51°14.953 2°49.297 63.5 2.8 54.6 13.1
2003-01-17 08:47:13 51°14.955 2°49.302 64.8 2.7 55.7 13.1
2003-01-17 08:47:18 51°14.957 2°49.308 66.3 2.7 56.4 13.2
2003-01-17 08:47:22 51°14.959 2°49.311 67.2 2.7 56 13.2
2003-01-17 08:47:28 51°14.961 2°49.318 68 2.7 57 13
2003-01-17 08:47:33 51°14.963 2°49.323 69 2.6 56.8 13.2
2003-01-17 08:47:38 51°14.965 2°49.327 69.7 2.6 56.9 13.2
2003-01-17 08:47:42 51°14.966 2°49.331 70.2 2.6 57.6 13.1
2003-01-17 08:47:48 51°14.968 2°49.337 70.7 2.6 58.7 13.2
2003-01-17 08:47:53 51°14.97 2°49.342 70.7 2.6 57.6 13.1
2003-01-17 08:47:58 51°14.972 2°49.347 70.7 2.6 58.6 13.2
2003-01-17 08:48:02 51°14.973 2°49.351 71 2.6 59 13.1
2003-01-17 08:48:08 51°14.976 2°49.357 71.3 2.6 58.9 13.2
2003-01-17 08:48:12 51°14.977 2°49.361 71.7 2.5 59.5 13.2
2003-01-17 08:48:18 51°14.979 2°49.367 72 2.5 59.7 13.2
2003-01-17 08:48:23 51°14.981 2°49.371 72.2 2.6 60.1 13.1
2003-01-17 08:48:28 51°14.983 2°49.377 73 2.6 60.9 13.2
2003-01-17 08:48:32 51°14.984 2°49.38 73.7 2.6 61.5 13.2
2003-01-17 08:48:38 51°14.986 2°49.387 74 2.6 61.5 13.2
2003-01-17 08:48:42 51°14.987 2°49.391 74.5 2.6 62.6 13.3
2003-01-17 08:48:48 51°14.989 2°49.397 75.3 2.6 63.3 13.3
2003-01-17 08:48:53 51°14.991 2°49.402 75.3 2.7 62.9 13.2
2003-01-17 08:48:58 51°14.993 2°49.407 75.8 2.7 64.3 13.2
2003-01-17 08:49:04 51°14.994 2°49.414 76.7 2.7 65.1 13.3
2003-01-17 08:49:08 51°14.996 2°49.418 77.3 2.7 64.9 13.1
2003-01-17 08:49:12 51°14.997 2°49.423 77.7 2.7 65.4 13.2
2003-01-17 08:49:18 51°14.999 2°49.429 77.8 2.7 65.3 13.2
2003-01-17 08:49:22 51°15 2°49.434 78.2 2.7 66.3 13.2
2003-01-17 08:49:28 51°15.002 2°49.44 78.8 2.7 67.8 13.1
2003-01-17 08:49:33 51°15.003 2°49.446 78.8 2.7 68.3 13.2
2003-01-17 08:49:38 51°15.005 2°49.451 78.8 2.7 67.9 13.1
2003-01-17 08:49:43 51°15.006 2°49.457 79 2.7 68.6 13.2
2003-01-17 08:49:48 51°15.007 2°49.462 79.2 2.7 67.5 13.2
2003-01-17 08:49:53 51°15.009 2°49.468 78.8 2.7 66.5 13.2
2003-01-17 08:49:58 51°15.01 2°49.473 78.3 2.7 67.5 13.2
2003-01-17 08:50:02 51°15.011 2°49.478 78 2.7 67.1 13.2
2003-01-17 08:50:08 51°15.013 2°49.484 77.8 2.7 66.3 13.3
2003-01-17 08:50:12 51°15.014 2°49.489 77.5 2.7 66.3 13.2
2003-01-17 08:50:18 51°15.016 2°49.495 77.7 2.7 66.9 13.3
2003-01-17 08:50:22 51°15.017 2°49.5 78 2.7 67 13.2
2003-01-17 08:50:28 51°15.019 2°49.506 77.8 2.7 66.4 13.3
2003-01-17 08:50:32 51°15.02 2°49.511 77.8 2.8 66.4 13.3
2003-01-17 08:50:38 51°15.022 2°49.518 78 2.8 65.6 13.3
2003-01-17 08:50:42 51°15.023 2°49.522 78.5 2.8 67 13.1
2003-01-17 08:50:48 51°15.025 2°49.529 79 2.7 67.8 13.3
2003-01-17 08:50:52 51°15.026 2°49.533 78.8 2.8 67.4 13.3
2003-01-17 08:50:58 51°15.028 2°49.54 79 2.8 68.3 13
2003-01-17 08:51:02 51°15.029 2°49.545 79.7 2.7 68.9 13.2
2003-01-17 08:51:08 51°15.03 2°49.552 80 2.8 68.9 13.2
2003-01-17 08:51:13 51°15.032 2°49.557 79.8 2.8 68 13.3
2003-01-17 08:51:18 51°15.033 2°49.563 79.8 2.8 68.8 13.2
2003-01-17 08:51:24 51°15.035 2°49.57 80.2 2.7 69 13.3
2003-01-17 08:51:28 51°15.036 2°49.574 80 2.7 69.3 13.3
2003-01-17 08:51:32 51°15.037 2°49.579 80 2.7 69.4 13.4
2003-01-17 08:51:38 51°15.039 2°49.586 80.2 2.7 68.6 13.3
2003-01-17 08:51:42 51°15.04 2°49.59 80.3 2.7 68.5 13.3
2003-01-17 08:51:48 51°15.042 2°49.597 80.2 2.7 68.8 13.3
2003-01-17 08:51:53 51°15.043 2°49.603 80 2.7 68.3 13
2003-01-17 08:51:58 51°15.044 2°49.608 80 2.8 68.2 13.1
2003-01-17 08:52:02 51°15.045 2°49.613 80.3 2.7 68.6 13.2
2003-01-17 08:52:08 51°15.047 2°49.62 80.3 2.8 67.9 13.3
2003-01-17 08:52:13 51°15.048 2°49.625 80.2 2.7 68.8 13.3
2003-01-17 08:52:18 51°15.05 2°49.631 80.2 2.7 68.7 13.2
2003-01-17 08:52:24 51°15.051 2°49.638 80 2.7 68.4 13.2
2003-01-17 08:52:28 51°15.053 2°49.642 79.8 2.7 67.5 13.3
2003-01-17 08:52:32 51°15.054 2°49.647 79.8 2.8 68 13.3
2003-01-17 08:52:38 51°15.056 2°49.653 79.5 2.8 67.5 13.3
2003-01-17 08:52:42 51°15.056 2°49.658 79.7 2.7 68.9 13.3
2003-01-17 08:52:48 51°15.058 2°49.665 79.8 2.8 67.8 13.3
2003-01-17 08:52:53 51°15.06 2°49.67 79.7 2.8 67.6 13.3
2003-01-17 08:52:58 51°15.061 2°49.676 79.7 2.8 66.7 13.3
2003-01-17 08:53:02 51°15.063 2°49.68 79.5 2.8 66.9 13.2
2003-01-17 08:53:08 51°15.064 2°49.687 79.5 2.8 67 13.3
2003-01-17 08:53:13 51°15.066 2°49.693 79.3 2.8 67.3 13.2
2003-01-17 08:53:18 51°15.067 2°49.698 79.7 2.8 67.5 13.3
2003-01-17 08:53:22 51°15.068 2°49.703 79.8 2.8 67.2 13.1
2003-01-17 08:53:28 51°15.07 2°49.71 80 2.8 68 13.3
2003-01-17 08:53:34 51°15.072 2°49.716 80.2 2.8 67.9 13.3
2003-01-17 08:53:38 51°15.073 2°49.721 80 2.8 67.6 13.2
2003-01-17 08:53:42 51°15.074 2°49.726 80.3 2.8 66.9 13.3
2003-01-17 08:53:48 51°15.076 2°49.732 80.5 2.8 66.8 13.3
2003-01-17 08:53:53 51°15.078 2°49.738 80.3 2.8 66.5 13.2
2003-01-17 08:53:58 51°15.079 2°49.744 80.5 2.8 66.3 13.3
2003-01-17 08:54:02 51°15.08 2°49.748 81.2 2.8 66.2 13.4
2003-01-17 08:54:08 51°15.082 2°49.755 81.2 2.8 66.6 13.4
2003-01-17 08:54:13 51°15.083 2°49.761 81.2 2.8 66.3 13.3
2003-01-17 08:54:18 51°15.085 2°49.766 81.3 2.8 66.1 13.1
2003-01-17 08:54:22 51°15.086 2°49.771 81.7 2.8 66.1 13.4
2003-01-17 08:54:28 51°15.088 2°49.778 82 2.8 66.9 13.3
2003-01-17 08:54:32 51°15.089 2°49.782 82 2.8 66.9 13.3
2003-01-17 08:54:38 51°15.091 2°49.789 82.3 2.8 68.2 13.4
2003-01-17 08:54:42 51°15.092 2°49.793 82.3 2.8 68.3 13.4
2003-01-17 08:54:48 51°15.094 2°49.8 82.8 2.7 68.4 13.4
2003-01-17 08:54:53 51°15.095 2°49.806 83.2 2.8 69.1 13.4
2003-01-17 08:54:58 51°15.096 2°49.812 83.2 2.8 69 13.3
2003-01-17 08:55:02 51°15.097 2°49.816 83.2 2.8 69.3 13.3
2003-01-17 08:55:08 51°15.099 2°49.823 83.7 2.8 69 13.3
2003-01-17 08:55:13 51°15.1 2°49.829 83.7 2.8 69.3 13.2
2003-01-17 08:55:18 51°15.102 2°49.834 83.5 2.8 69.5 13.3
2003-01-17 08:55:22 51°15.103 2°49.839 83.3 2.8 69.3 13.3
2003-01-17 08:55:28 51°15.105 2°49.846 83.3 2.8 69.2 13.4
2003-01-17 08:55:32 51°15.106 2°49.851 83.5 2.8 70.9 13.4
2003-01-17 08:55:38 51°15.107 2°49.858 83.5 2.8 70.1 13.4
2003-01-17 08:55:42 51°15.108 2°49.862 83.8 2.8 70.7 13.3
2003-01-17 08:55:48 51°15.11 2°49.869 83.8 2.8 70.9 13.4
2003-01-17 08:55:53 51°15.111 2°49.875 84 2.8 71.5 13.2
2003-01-17 08:55:58 51°15.112 2°49.881 84.2 2.8 70.6 13.2
2003-01-17 08:56:02 51°15.114 2°49.885 84.2 2.8 71.1 13.4
2003-01-17 08:56:08 51°15.115 2°49.892 84.3 2.8 70.9 13.2
2003-01-17 08:56:12 51°15.116 2°49.897 84.8 2.8 72.1 13.2
2003-01-17 08:56:18 51°15.117 2°49.904 85.2 2.8 71.7 13.2
2003-01-17 08:56:22 51°15.118 2°49.908 85.2 2.8 72.6 13.3
2003-01-17 08:56:28 51°15.12 2°49.916 85.3 2.8 73 13.4
2003-01-17 08:56:33 51°15.121 2°49.921 85.5 2.8 73.1 13.4
2003-01-17 08:56:38 51°15.122 2°49.927 85.5 2.8 72.9 13.4
2003-01-17 08:56:44 51°15.123 2°49.934 85.7 2.8 73 13.4
2003-01-17 08:56:48 51°15.124 2°49.939 85.7 2.8 73.2 13.4
2003-01-17 08:56:52 51°15.125 2°49.944 85.5 2.8 72.7 13.4
2003-01-17 08:56:58 51°15.126 2°49.951 85.8 2.8 73.1 13.3
2003-01-17 08:57:03 51°15.127 2°49.957 86.2 2.8 72.2 13.3
2003-01-17 08:57:08 51°15.129 2°49.963 85.7 2.8 71.8 13.4
2003-01-17 08:57:13 51°15.13 2°49.968 85.3 2.8 71.9 13.3
2003-01-17 08:57:18 51°15.131 2°49.974 85.3 2.8 72.2 13.4
2003-01-17 08:57:22 51°15.132 2°49.979 85.3 2.8 72.2 13.3
2003-01-17 08:57:28 51°15.133 2°49.986 85.5 2.8 72.1 13.4
2003-01-17 08:57:33 51°15.134 2°49.992 85.7 2.8 72.4 13.5
2003-01-17 08:57:38 51°15.135 2°49.998 85.3 2.8 71.9 13.4
2003-01-17 08:57:44 51°15.137 2°50.005 85.7 2.8 72.2 13.2
2003-01-17 08:57:48 51°15.138 2°50.009 85.8 2.8 72 13.3
2003-01-17 08:57:53 51°15.139 2°50.015 85.7 2.8 71.7 13.4
2003-01-17 08:57:58 51°15.14 2°50.021 85.7 2.8 71.6 13.4
2003-01-17 08:58:04 51°15.142 2°50.028 85.5 2.8 70.9 13.4
2003-01-17 08:58:08 51°15.143 2°50.033 85.5 2.8 71 13.4
2003-01-17 08:58:12 51°15.144 2°50.037 85.5 2.8 70.6 13.5
2003-01-17 08:58:18 51°15.145 2°50.044 85.3 2.8 70.5 13.4
2003-01-17 08:58:22 51°15.146 2°50.049 85.3 2.8 70.6 13.4
2003-01-17 08:58:28 51°15.148 2°50.056 85.3 2.8 70.5 13.3
2003-01-17 08:58:33 51°15.149 2°50.062 85.5 2.8 70.7 13.3
2003-01-17 08:58:38 51°15.15 2°50.068 85.7 2.8 70.9 13.4
2003-01-17 08:58:42 51°15.151 2°50.072 86.2 2.8 72.3 13.2
2003-01-17 08:58:48 51°15.153 2°50.079 86 2.8 71.6 13.3
2003-01-17 08:58:52 51°15.153 2°50.084 86.7 2.7 72.7 13.4
2003-01-17 08:58:58 51°15.155 2°50.09 87 2.6 71.5 13.4
2003-01-17 08:59:02 51°15.156 2°50.094 87.2 2.5 71.3 13.5
2003-01-17 08:59:08 51°15.157 2°50.1 87.2 2.5 70.1 13.4
2003-01-17 08:59:13 51°15.158 2°50.106 87.3 2.5 70.9 13.3
2003-01-17 08:59:18 51°15.159 2°50.111 87.5 2.4 70.5 13.4
2003-01-17 08:59:22 51°15.16 2°50.115 88.5 2.4 70.5 13.4
2003-01-17 08:59:28 51°15.161 2°50.121 89 2.4 70.5 13.4
2003-01-17 08:59:33 51°15.162 2°50.125 89.7 2.4 71.2 13.4
2003-01-17 08:59:38 51°15.163 2°50.13 90.8 2.3 71.6 13.3
2003-01-17 08:59:42 51°15.164 2°50.134 91.5 2.3 72.4 13.4
2003-01-17 08:59:48 51°15.165 2°50.14 92.2 2.2 73.5 13.4
2003-01-17 08:59:53 51°15.166 2°50.144 93 2.2 73.2 13.4
2003-01-17 08:59:58 51°15.167 2°50.149 93.5 2.2 73.6 13.2
2003-01-17 09:00:02 51°15.167 2°50.153 94.3 2.2 74.2 13.2
2003-01-17 09:00:08 51°15.168 2°50.158 95.2 2.2 74.7 13.3
2003-01-17 09:00:13 51°15.169 2°50.163 95.5 2.2 74.8 13.5
2003-01-17 09:00:18 51°15.17 2°50.168 95.5 2.2 74.6 13.3
2003-01-17 09:00:22 51°15.17 2°50.171 95.8 2.2 75.4 13.3
2003-01-17 09:00:28 51°15.171 2°50.177 96.5 2.2 76.6 13.4
2003-01-17 09:00:32 51°15.172 2°50.181 97 2.2 76.6 13.4
2003-01-17 09:00:38 51°15.173 2°50.186 97.5 2.2 76.6 13.4
2003-01-17 09:00:44 51°15.174 2°50.192 97.7 2.2 76.5 13.4
2003-01-17 09:00:48 51°15.174 2°50.196 98.3 2.2 77.2 13.4
2003-01-17 09:00:52 51°15.175 2°50.199 98.8 2.1 77 13.4
2003-01-17 09:00:58 51°15.175 2°50.205 99.2 2.1 77.5 13.4
2003-01-17 09:01:03 51°15.176 2°50.209 99.8 2.1 77.4 13.2
2003-01-17 09:01:08 51°15.177 2°50.214 100.5 2.1 77.2 13.5
2003-01-17 09:01:13 51°15.177 2°50.218 101.3 2.1 78 13.2
2003-01-17 09:01:18 51°15.177 2°50.223 102 2.1 78.8 13.3
2003-01-17 09:01:22 51°15.178 2°50.226 103.2 2 80.1 13.4
2003-01-17 09:01:28 51°15.178 2°50.232 104.2 2 80.8 13.5
2003-01-17 09:01:33 51°15.179 2°50.236 105.2 2 81.5 13.4
2003-01-17 09:01:38 51°15.179 2°50.24 106.3 2 82.8 13.5
2003-01-17 09:01:43 51°15.179 2°50.245 107.5 2 82.6 13.5
2003-01-17 09:01:48 51°15.18 2°50.249 108.3 2 83.2 13.4
2003-01-17 09:01:53 51°15.18 2°50.253 109.3 2 85 13.4
2003-01-17 09:01:58 51°15.18 2°50.258 111 2 84.7 13.3
2003-01-17 09:02:02 51°15.18 2°50.261 111.3 2 86.1 13.5
2003-01-17 09:02:08 51°15.18 2°50.266 112.2 1.9 87.3 13.5
2003-01-17 09:02:14 51°15.181 2°50.271 112.8 1.9 86.5 13.5
2003-01-17 09:02:18 51°15.181 2°50.275 113.3 1.9 85.7 13.5
2003-01-17 09:02:23 51°15.181 2°50.279 113.8 1.9 85.3 13.4
2003-01-17 09:02:28 51°15.181 2°50.283 114.2 1.8 83.6 13.5
2003-01-17 09:02:33 51°15.182 2°50.287 114.3 1.8 81.6 13.3
2003-01-17 09:02:38 51°15.182 2°50.29 114.5 1.7 80.2 13.3
2003-01-17 09:02:42 51°15.183 2°50.293 115 1.7 79.5 13.3
2003-01-17 09:02:48 51°15.183 2°50.297 115.3 1.6 80.2 13.4
2003-01-17 09:02:53 51°15.183 2°50.301 115.8 1.5 79.1 13.5
2003-01-17 09:02:58 51°15.184 2°50.304 116 1.5 76.8 13.5
2003-01-17 09:03:03 51°15.184 2°50.307 116.3 1.5 76.1 13.5
2003-01-17 09:03:08 51°15.185 2°50.31 116.8 1.4 76.4 13.4
2003-01-17 09:03:13 51°15.186 2°50.313 117.7 1.4 76.5 13.4
2003-01-17 09:03:18 51°15.186 2°50.316 117.8 1.4 75.7 13.5
2003-01-17 09:03:22 51°15.187 2°50.318 118.2 1.3 72.7 13.4
2003-01-17 09:03:28 51°15.187 2°50.321 118.3 1.3 71.9 13.5
2003-01-17 09:03:33 51°15.188 2°50.324 118.3 1.3 71 13.5
2003-01-17 09:03:38 51°15.189 2°50.326 118.5 1.3 69.1 13.5
2003-01-17 09:03:42 51°15.189 2°50.328 118.8 1.2 68.7 13.5
2003-01-17 09:03:48 51°15.19 2°50.331 119 1.2 68.4 13.5
2003-01-17 09:03:53 51°15.19 2°50.334 119 1.2 66.5 13.5
2003-01-17 09:03:58 51°15.191 2°50.336 119 1.2 65.8 13.3
2003-01-17 09:04:02 51°15.192 2°50.338 119.3 1.1 63.5 13.5
2003-01-17 09:04:08 51°15.192 2°50.34 119 1.2 62.2 13.5
2003-01-17 09:04:12 51°15.193 2°50.342 118.8 1.1 61.9 13.5
2003-01-17 09:04:18 51°15.194 2°50.345 119 1.1 62.3 13.4
2003-01-17 09:04:22 51°15.194 2°50.346 119.7 1 62.9 13.3
2003-01-17 09:04:28 51°15.195 2°50.349 120 1 63.9 13.4
2003-01-17 09:04:32 51°15.195 2°50.351 120.7 1 63.8 13.5
2003-01-17 09:04:38 51°15.196 2°50.353 121 1.1 62 13.4
2003-01-17 09:04:43 51°15.197 2°50.355 121.5 1 61.7 13.5
2003-01-17 09:04:48 51°15.198 2°50.357 121.7 1 61.4 13.5
2003-01-17 09:04:54 51°15.198 2°50.359 121.8 1 62.1 13.5
2003-01-17 09:04:58 51°15.199 2°50.361 122 1 60.2 13.4
2003-01-17 09:05:03 51°15.199 2°50.363 122.5 1 60 13.5
2003-01-17 09:05:08 51°15.2 2°50.364 122.8 1 59.3 13.4
2003-01-17 09:05:13 51°15.201 2°50.367 123.3 1 57.7 13.4
2003-01-17 09:05:18 51°15.202 2°50.368 123.7 1 57 13.5
2003-01-17 09:05:22 51°15.202 2°50.37 123.8 1 57.2 13.5
2003-01-17 09:05:28 51°15.203 2°50.372 124.5 1 56.1 13.4
2003-01-17 09:05:34 51°15.204 2°50.374 124.3 1 52.7 13.3
2003-01-17 09:05:38 51°15.205 2°50.376 123.8 1.1 49.5 13.5
2003-01-17 09:05:42 51°15.206 2°50.377 123.5 1.1 47.6 13.4
2003-01-17 09:05:48 51°15.207 2°50.379 123.2 1.1 47.1 13.5
2003-01-17 09:05:53 51°15.208 2°50.381 122.5 1 47.7 13.5
2003-01-17 09:05:58 51°15.209 2°50.382 122.3 1 46.1 13.4
2003-01-17 09:06:03 51°15.21 2°50.384 121.7 1 46.2 13.5
2003-01-17 09:06:08 51°15.21 2°50.386 121.7 1 47.2 13.6
2003-01-17 09:06:14 51°15.212 2°50.388 122 1 47.7 13.5
2003-01-17 09:06:18 51°15.212 2°50.389 121.7 1 47.1 13.5
2003-01-17 09:06:22 51°15.213 2°50.39 121.2 1 44 13.6
2003-01-17 09:06:28 51°15.215 2°50.392 120.5 1.1 41.1 13.4
2003-01-17 09:06:34 51°15.216 2°50.394 119.5 1.1 38.9 13.4
2003-01-17 09:06:38 51°15.217 2°50.395 119 1.1 38.6 13.5
2003-01-17 09:06:42 51°15.218 2°50.396 118 1.1 38.2 13.5
2003-01-17 09:06:48 51°15.219 2°50.398 117.3 1.1 37.9 13.5
2003-01-17 09:06:52 51°15.22 2°50.399 117 1.1 37.1 13.6
2003-01-17 09:06:58 51°15.222 2°50.401 116.3 1.1 36.4 13.5
2003-01-17 09:07:02 51°15.223 2°50.402 115.5 1.1 36.4 13.6
2003-01-17 09:07:08 51°15.224 2°50.404 115 1.1 36.5 13.4
2003-01-17 09:07:12 51°15.225 2°50.405 114.8 1.1 36.5 13.6
2003-01-17 09:07:18 51°15.226 2°50.407 114.3 1.1 36.6 13.5
2003-01-17 09:07:24 51°15.228 2°50.408 114.2 1.1 37 13.6
2003-01-17 09:07:28 51°15.229 2°50.409 113.7 1.1 37.1 13.5
2003-01-17 09:07:32 51°15.23 2°50.411 113.7 1.1 37.5 13.6
2003-01-17 09:07:38 51°15.231 2°50.412 113.5 1.1 36.4 13.5